sensor_id;sensor_type;location;lat;lon;timestamp;P1;durP1;ratioP1;P2;durP2;ratioP2
1601;SDS011;794;48.592;9.634;2023-09-30T00:02:26;10.20;;;5.60;;
1601;SDS011;794;48.592;9.634;2023-09-30T00:04:55;13.63;;;5.77;;
1601;SDS011;794;48.592;9.634;2023-09-30T00:07:22;10.37;;;5.63;;
1601;SDS011;794;48.592;9.634;2023-09-30T00:09:49;7.93;;;5.27;;
1601;SDS011;794;48.592;9.634;2023-09-30T00:12:16;12.87;;;5.47;;
1601;SDS011;794;48.592;9.634;2023-09-30T00:14:44;11.03;;;5.10;;
1601;SDS011;794;48.592;9.634;2023-09-30T00:17:11;10.87;;;5.57;;
1601;SDS011;794;48.592;9.634;2023-09-30T00:19:38;12.17;;;5.97;;
1601;SDS011;794;48.592;9.634;2023-09-30T00:22:06;13.77;;;5.60;;
1601;SDS011;794;48.592;9.634;2023-09-30T00:24:33;9.83;;;5.07;;
1601;SDS011;794;48.592;9.634;2023-09-30T00:27:00;10.53;;;5.43;;
1601;SDS011;794;48.592;9.634;2023-09-30T00:29:27;13.83;;;6.53;;
1601;SDS011;794;48.592;9.634;2023-09-30T00:31:54;12.07;;;5.00;;
1601;SDS011;794;48.592;9.634;2023-09-30T00:34:21;9.73;;;4.73;;
1601;SDS011;794;48.592;9.634;2023-09-30T00:36:48;10.90;;;4.67;;
1601;SDS011;794;48.592;9.634;2023-09-30T00:39:16;11.30;;;4.27;;
1601;SDS011;794;48.592;9.634;2023-09-30T00:41:43;9.13;;;3.90;;
1601;SDS011;794;48.592;9.634;2023-09-30T00:44:10;11.80;;;4.47;;
1601;SDS011;794;48.592;9.634;2023-09-30T00:46:38;8.77;;;4.90;;
1601;SDS011;794;48.592;9.634;2023-09-30T00:49:06;6.00;;;3.70;;
1601;SDS011;794;48.592;9.634;2023-09-30T00:51:35;12.70;;;4.87;;
1601;SDS011;794;48.592;9.634;2023-09-30T00:54:03;7.20;;;4.23;;
1601;SDS011;794;48.592;9.634;2023-09-30T00:56:32;7.70;;;4.00;;
1601;SDS011;794;48.592;9.634;2023-09-30T00:59:00;7.73;;;4.23;;
1601;SDS011;794;48.592;9.634;2023-09-30T01:01:27;8.50;;;4.23;;
1601;SDS011;794;48.592;9.634;2023-09-30T01:03:54;8.63;;;4.23;;
1601;SDS011;794;48.592;9.634;2023-09-30T01:06:23;7.87;;;3.57;;
1601;SDS011;794;48.592;9.634;2023-09-30T01:08:50;6.47;;;3.20;;
1601;SDS011;794;48.592;9.634;2023-09-30T01:11:18;8.50;;;3.53;;
1601;SDS011;794;48.592;9.634;2023-09-30T01:13:47;8.40;;;4.07;;
1601;SDS011;794;48.592;9.634;2023-09-30T01:16:14;10.77;;;3.90;;
1601;SDS011;794;48.592;9.634;2023-09-30T01:18:41;8.90;;;4.17;;
1601;SDS011;794;48.592;9.634;2023-09-30T01:21:09;7.80;;;4.17;;
1601;SDS011;794;48.592;9.634;2023-09-30T01:23:38;7.93;;;4.10;;
1601;SDS011;794;48.592;9.634;2023-09-30T01:26:07;11.47;;;4.13;;
1601;SDS011;794;48.592;9.634;2023-09-30T01:28:35;6.87;;;4.00;;
1601;SDS011;794;48.592;9.634;2023-09-30T01:31:02;7.17;;;3.60;;
1601;SDS011;794;48.592;9.634;2023-09-30T01:33:29;6.90;;;3.50;;
1601;SDS011;794;48.592;9.634;2023-09-30T01:35:56;5.80;;;3.53;;
1601;SDS011;794;48.592;9.634;2023-09-30T01:38:24;6.47;;;3.40;;
1601;SDS011;794;48.592;9.634;2023-09-30T01:40:53;5.77;;;3.00;;
1601;SDS011;794;48.592;9.634;2023-09-30T01:43:20;6.87;;;3.87;;
1601;SDS011;794;48.592;9.634;2023-09-30T01:45:47;4.77;;;3.20;;
1601;SDS011;794;48.592;9.634;2023-09-30T01:48:14;7.47;;;3.53;;
1601;SDS011;794;48.592;9.634;2023-09-30T01:50:41;6.50;;;3.83;;
1601;SDS011;794;48.592;9.634;2023-09-30T01:53:08;8.03;;;4.17;;
1601;SDS011;794;48.592;9.634;2023-09-30T01:55:35;5.90;;;3.60;;
1601;SDS011;794;48.592;9.634;2023-09-30T01:58:04;5.90;;;3.23;;
1601;SDS011;794;48.592;9.634;2023-09-30T02:00:31;4.83;;;3.40;;
1601;SDS011;794;48.592;9.634;2023-09-30T02:03:00;7.03;;;3.20;;
1601;SDS011;794;48.592;9.634;2023-09-30T02:05:27;9.57;;;3.80;;
1601;SDS011;794;48.592;9.634;2023-09-30T02:07:54;7.63;;;4.07;;
1601;SDS011;794;48.592;9.634;2023-09-30T02:10:21;6.80;;;3.93;;
1601;SDS011;794;48.592;9.634;2023-09-30T02:12:48;6.97;;;3.97;;
1601;SDS011;794;48.592;9.634;2023-09-30T02:15:16;6.03;;;3.13;;
1601;SDS011;794;48.592;9.634;2023-09-30T02:17:43;6.27;;;3.50;;
1601;SDS011;794;48.592;9.634;2023-09-30T02:20:13;6.37;;;3.80;;
1601;SDS011;794;48.592;9.634;2023-09-30T02:22:44;6.20;;;4.40;;
1601;SDS011;794;48.592;9.634;2023-09-30T02:25:12;9.80;;;4.97;;
1601;SDS011;794;48.592;9.634;2023-09-30T02:27:39;8.07;;;4.77;;
1601;SDS011;794;48.592;9.634;2023-09-30T02:30:07;11.13;;;5.27;;
1601;SDS011;794;48.592;9.634;2023-09-30T02:32:38;5.70;;;4.27;;
1601;SDS011;794;48.592;9.634;2023-09-30T02:35:06;7.57;;;4.40;;
1601;SDS011;794;48.592;9.634;2023-09-30T02:37:36;8.37;;;4.47;;
1601;SDS011;794;48.592;9.634;2023-09-30T02:40:03;7.80;;;4.30;;
1601;SDS011;794;48.592;9.634;2023-09-30T02:42:34;9.90;;;4.93;;
1601;SDS011;794;48.592;9.634;2023-09-30T02:45:03;8.53;;;4.20;;
1601;SDS011;794;48.592;9.634;2023-09-30T02:47:30;10.00;;;4.77;;
1601;SDS011;794;48.592;9.634;2023-09-30T02:49:59;8.80;;;5.00;;
1601;SDS011;794;48.592;9.634;2023-09-30T02:52:26;7.03;;;4.13;;
1601;SDS011;794;48.592;9.634;2023-09-30T02:54:54;5.97;;;3.50;;
1601;SDS011;794;48.592;9.634;2023-09-30T02:57:22;6.67;;;3.70;;
1601;SDS011;794;48.592;9.634;2023-09-30T02:59:49;8.17;;;4.67;;
1601;SDS011;794;48.592;9.634;2023-09-30T03:02:19;7.10;;;3.77;;
1601;SDS011;794;48.592;9.634;2023-09-30T03:04:47;5.90;;;3.33;;
1601;SDS011;794;48.592;9.634;2023-09-30T03:07:17;6.33;;;4.03;;
1601;SDS011;794;48.592;9.634;2023-09-30T03:09:44;6.10;;;3.83;;
1601;SDS011;794;48.592;9.634;2023-09-30T03:12:12;9.47;;;4.17;;
1601;SDS011;794;48.592;9.634;2023-09-30T03:14:39;5.53;;;3.80;;
1601;SDS011;794;48.592;9.634;2023-09-30T03:17:06;10.53;;;5.00;;
1601;SDS011;794;48.592;9.634;2023-09-30T03:19:36;8.80;;;4.70;;
1601;SDS011;794;48.592;9.634;2023-09-30T03:22:04;6.10;;;4.03;;
1601;SDS011;794;48.592;9.634;2023-09-30T03:24:37;8.07;;;4.73;;
1601;SDS011;794;48.592;9.634;2023-09-30T03:27:04;6.27;;;3.90;;
1601;SDS011;794;48.592;9.634;2023-09-30T03:29:31;6.73;;;3.47;;
1601;SDS011;794;48.592;9.634;2023-09-30T03:31:58;6.93;;;3.93;;
1601;SDS011;794;48.592;9.634;2023-09-30T03:34:25;5.37;;;3.77;;
1601;SDS011;794;48.592;9.634;2023-09-30T03:36:53;5.97;;;4.33;;
1601;SDS011;794;48.592;9.634;2023-09-30T03:39:23;6.83;;;3.90;;
1601;SDS011;794;48.592;9.634;2023-09-30T03:41:53;6.63;;;4.33;;
1601;SDS011;794;48.592;9.634;2023-09-30T03:44:21;9.67;;;4.90;;
1601;SDS011;794;48.592;9.634;2023-09-30T03:49:16;7.87;;;5.10;;
1601;SDS011;794;48.592;9.634;2023-09-30T03:51:45;7.63;;;5.13;;
1601;SDS011;794;48.592;9.634;2023-09-30T03:54:12;6.43;;;5.10;;
1601;SDS011;794;48.592;9.634;2023-09-30T03:56:39;7.07;;;5.23;;
1601;SDS011;794;48.592;9.634;2023-09-30T03:59:08;6.70;;;4.93;;
1601;SDS011;794;48.592;9.634;2023-09-30T04:01:35;7.90;;;4.77;;
1601;SDS011;794;48.592;9.634;2023-09-30T04:04:05;7.50;;;5.47;;
1601;SDS011;794;48.592;9.634;2023-09-30T04:06:34;7.83;;;5.97;;
1601;SDS011;794;48.592;9.634;2023-09-30T04:09:03;8.90;;;6.07;;
1601;SDS011;794;48.592;9.634;2023-09-30T04:11:35;8.30;;;5.83;;
1601;SDS011;794;48.592;9.634;2023-09-30T04:14:02;9.13;;;6.33;;
1601;SDS011;794;48.592;9.634;2023-09-30T04:16:31;8.60;;;5.87;;
1601;SDS011;794;48.592;9.634;2023-09-30T04:18:58;10.20;;;6.90;;
1601;SDS011;794;48.592;9.634;2023-09-30T04:21:25;10.83;;;6.40;;
1601;SDS011;794;48.592;9.634;2023-09-30T04:23:55;11.93;;;7.43;;
1601;SDS011;794;48.592;9.634;2023-09-30T04:26:22;9.03;;;6.97;;
1601;SDS011;794;48.592;9.634;2023-09-30T04:28:49;11.47;;;7.23;;
1601;SDS011;794;48.592;9.634;2023-09-30T04:31:16;7.40;;;6.00;;
1601;SDS011;794;48.592;9.634;2023-09-30T04:33:44;9.20;;;5.70;;
1601;SDS011;794;48.592;9.634;2023-09-30T04:36:12;11.50;;;6.77;;
1601;SDS011;794;48.592;9.634;2023-09-30T04:38:39;6.57;;;5.87;;
1601;SDS011;794;48.592;9.634;2023-09-30T04:41:06;11.13;;;6.00;;
1601;SDS011;794;48.592;9.634;2023-09-30T04:43:33;10.67;;;6.40;;
1601;SDS011;794;48.592;9.634;2023-09-30T04:46:03;11.43;;;9.20;;
1601;SDS011;794;48.592;9.634;2023-09-30T04:48:32;8.97;;;5.63;;
1601;SDS011;794;48.592;9.634;2023-09-30T04:51:00;8.10;;;6.37;;
1601;SDS011;794;48.592;9.634;2023-09-30T04:53:29;8.30;;;6.50;;
1601;SDS011;794;48.592;9.634;2023-09-30T04:55:59;7.97;;;5.77;;
1601;SDS011;794;48.592;9.634;2023-09-30T04:58:26;7.83;;;5.97;;
1601;SDS011;794;48.592;9.634;2023-09-30T05:00:54;8.10;;;6.67;;
1601;SDS011;794;48.592;9.634;2023-09-30T05:03:21;8.57;;;6.40;;
1601;SDS011;794;48.592;9.634;2023-09-30T05:05:49;10.00;;;6.80;;
1601;SDS011;794;48.592;9.634;2023-09-30T05:08:19;9.60;;;7.07;;
1601;SDS011;794;48.592;9.634;2023-09-30T05:10:46;8.03;;;6.80;;
1601;SDS011;794;48.592;9.634;2023-09-30T05:13:13;13.13;;;6.80;;
1601;SDS011;794;48.592;9.634;2023-09-30T05:15:40;10.90;;;6.87;;
1601;SDS011;794;48.592;9.634;2023-09-30T05:18:07;11.60;;;7.40;;
1601;SDS011;794;48.592;9.634;2023-09-30T05:20:34;6.73;;;5.97;;
1601;SDS011;794;48.592;9.634;2023-09-30T05:23:03;10.10;;;6.03;;
1601;SDS011;794;48.592;9.634;2023-09-30T05:25:33;8.87;;;6.37;;
1601;SDS011;794;48.592;9.634;2023-09-30T05:28:02;12.83;;;7.23;;
1601;SDS011;794;48.592;9.634;2023-09-30T05:30:30;11.67;;;6.60;;
1601;SDS011;794;48.592;9.634;2023-09-30T05:32:58;12.27;;;7.40;;
1601;SDS011;794;48.592;9.634;2023-09-30T05:35:25;11.00;;;7.67;;
1601;SDS011;794;48.592;9.634;2023-09-30T05:37:53;12.63;;;6.67;;
1601;SDS011;794;48.592;9.634;2023-09-30T05:40:21;8.60;;;6.47;;
1601;SDS011;794;48.592;9.634;2023-09-30T05:42:51;9.10;;;6.70;;
1601;SDS011;794;48.592;9.634;2023-09-30T05:45:19;9.50;;;6.87;;
1601;SDS011;794;48.592;9.634;2023-09-30T05:47:48;8.60;;;5.60;;
1601;SDS011;794;48.592;9.634;2023-09-30T05:50:17;11.83;;;6.23;;
1601;SDS011;794;48.592;9.634;2023-09-30T05:52:49;11.23;;;6.93;;
1601;SDS011;794;48.592;9.634;2023-09-30T05:55:16;9.00;;;6.80;;
1601;SDS011;794;48.592;9.634;2023-09-30T05:57:45;9.40;;;6.10;;
1601;SDS011;794;48.592;9.634;2023-09-30T06:00:14;9.70;;;6.53;;
1601;SDS011;794;48.592;9.634;2023-09-30T06:02:45;8.37;;;6.40;;
1601;SDS011;794;48.592;9.634;2023-09-30T06:05:12;8.63;;;6.10;;
1601;SDS011;794;48.592;9.634;2023-09-30T06:59:18;6.57;;;5.27;;
1601;SDS011;794;48.592;9.634;2023-09-30T07:01:45;8.30;;;6.33;;
1601;SDS011;794;48.592;9.634;2023-09-30T07:04:12;7.77;;;5.50;;
1601;SDS011;794;48.592;9.634;2023-09-30T07:06:38;7.83;;;5.90;;
1601;SDS011;794;48.592;9.634;2023-09-30T07:09:05;9.93;;;5.67;;
1601;SDS011;794;48.592;9.634;2023-09-30T07:11:34;6.10;;;4.63;;
1601;SDS011;794;48.592;9.634;2023-09-30T07:14:01;8.17;;;5.80;;
1601;SDS011;794;48.592;9.634;2023-09-30T07:16:30;7.73;;;4.80;;
1601;SDS011;794;48.592;9.634;2023-09-30T07:18:57;6.43;;;4.63;;
1601;SDS011;794;48.592;9.634;2023-09-30T07:21:24;5.27;;;4.77;;
1601;SDS011;794;48.592;9.634;2023-09-30T07:23:51;5.73;;;4.40;;
1601;SDS011;794;48.592;9.634;2023-09-30T07:26:18;5.27;;;4.40;;
1601;SDS011;794;48.592;9.634;2023-09-30T07:28:50;6.57;;;4.20;;
1601;SDS011;794;48.592;9.634;2023-09-30T07:31:19;5.40;;;4.70;;
1601;SDS011;794;48.592;9.634;2023-09-30T07:33:49;5.40;;;4.90;;
1601;SDS011;794;48.592;9.634;2023-09-30T07:36:16;6.23;;;4.37;;
1601;SDS011;794;48.592;9.634;2023-09-30T07:38:43;6.83;;;4.60;;
1601;SDS011;794;48.592;9.634;2023-09-30T07:41:10;7.10;;;5.23;;
1601;SDS011;794;48.592;9.634;2023-09-30T07:43:37;6.93;;;4.53;;
1601;SDS011;794;48.592;9.634;2023-09-30T07:46:05;5.47;;;3.97;;
1601;SDS011;794;48.592;9.634;2023-09-30T07:48:32;7.83;;;4.93;;
1601;SDS011;794;48.592;9.634;2023-09-30T07:51:01;5.77;;;4.10;;
1601;SDS011;794;48.592;9.634;2023-09-30T07:53:29;4.80;;;3.67;;
1601;SDS011;794;48.592;9.634;2023-09-30T07:55:56;3.67;;;3.00;;
1601;SDS011;794;48.592;9.634;2023-09-30T07:58:25;5.47;;;3.83;;
1601;SDS011;794;48.592;9.634;2023-09-30T08:00:53;8.63;;;4.60;;
1601;SDS011;794;48.592;9.634;2023-09-30T08:03:20;8.03;;;4.90;;
1601;SDS011;794;48.592;9.634;2023-09-30T08:05:47;6.57;;;4.40;;
1601;SDS011;794;48.592;9.634;2023-09-30T08:08:17;7.30;;;4.50;;
1601;SDS011;794;48.592;9.634;2023-09-30T08:10:44;6.17;;;4.40;;
1601;SDS011;794;48.592;9.634;2023-09-30T08:13:11;5.53;;;4.03;;
1601;SDS011;794;48.592;9.634;2023-09-30T08:15:39;6.20;;;4.33;;
1601;SDS011;794;48.592;9.634;2023-09-30T08:18:06;5.40;;;3.90;;
1601;SDS011;794;48.592;9.634;2023-09-30T08:20:33;7.50;;;5.57;;
1601;SDS011;794;48.592;9.634;2023-09-30T08:23:01;11.90;;;5.07;;
1601;SDS011;794;48.592;9.634;2023-09-30T08:25:30;6.03;;;5.20;;
1601;SDS011;794;48.592;9.634;2023-09-30T08:27:57;9.33;;;5.50;;
1601;SDS011;794;48.592;9.634;2023-09-30T08:30:25;8.60;;;4.53;;
1601;SDS011;794;48.592;9.634;2023-09-30T08:32:52;6.17;;;5.53;;
1601;SDS011;794;48.592;9.634;2023-09-30T08:35:19;5.73;;;4.90;;
1601;SDS011;794;48.592;9.634;2023-09-30T08:37:46;10.87;;;5.37;;
1601;SDS011;794;48.592;9.634;2023-09-30T08:40:13;7.43;;;5.80;;
1601;SDS011;794;48.592;9.634;2023-09-30T08:42:41;7.10;;;4.83;;
1601;SDS011;794;48.592;9.634;2023-09-30T08:45:09;8.80;;;5.93;;
1601;SDS011;794;48.592;9.634;2023-09-30T08:47:40;10.40;;;5.50;;
1601;SDS011;794;48.592;9.634;2023-09-30T08:50:08;6.43;;;5.10;;
1601;SDS011;794;48.592;9.634;2023-09-30T08:52:36;7.80;;;5.10;;
1601;SDS011;794;48.592;9.634;2023-09-30T08:55:06;9.03;;;6.13;;
1601;SDS011;794;48.592;9.634;2023-09-30T08:57:34;6.00;;;4.50;;
1601;SDS011;794;48.592;9.634;2023-09-30T09:00:07;9.00;;;6.00;;
1601;SDS011;794;48.592;9.634;2023-09-30T09:02:36;9.60;;;5.73;;
1601;SDS011;794;48.592;9.634;2023-09-30T09:05:04;9.90;;;5.20;;
1601;SDS011;794;48.592;9.634;2023-09-30T09:07:32;9.33;;;5.80;;
1601;SDS011;794;48.592;9.634;2023-09-30T09:10:02;9.00;;;7.50;;
1601;SDS011;794;48.592;9.634;2023-09-30T09:12:30;8.00;;;5.33;;
1601;SDS011;794;48.592;9.634;2023-09-30T09:14:59;10.50;;;6.90;;
1601;SDS011;794;48.592;9.634;2023-09-30T09:17:39;9.63;;;5.50;;
1601;SDS011;794;48.592;9.634;2023-09-30T09:20:07;7.60;;;4.70;;
1601;SDS011;794;48.592;9.634;2023-09-30T09:22:39;8.67;;;5.20;;
1601;SDS011;794;48.592;9.634;2023-09-30T09:25:07;7.27;;;4.70;;
1601;SDS011;794;48.592;9.634;2023-09-30T09:27:34;8.57;;;5.40;;
1601;SDS011;794;48.592;9.634;2023-09-30T09:30:15;6.40;;;4.30;;
1601;SDS011;794;48.592;9.634;2023-09-30T09:32:53;7.80;;;4.50;;
1601;SDS011;794;48.592;9.634;2023-09-30T09:35:23;9.27;;;5.07;;
1601;SDS011;794;48.592;9.634;2023-09-30T09:37:56;7.57;;;4.50;;
1601;SDS011;794;48.592;9.634;2023-09-30T09:40:25;6.83;;;4.30;;
1601;SDS011;794;48.592;9.634;2023-09-30T09:42:53;6.90;;;4.30;;
1601;SDS011;794;48.592;9.634;2023-09-30T09:45:21;5.10;;;3.93;;
1601;SDS011;794;48.592;9.634;2023-09-30T09:47:49;7.60;;;4.77;;
1601;SDS011;794;48.592;9.634;2023-09-30T09:50:19;9.90;;;5.83;;
1601;SDS011;794;48.592;9.634;2023-09-30T09:52:48;8.60;;;5.20;;
1601;SDS011;794;48.592;9.634;2023-09-30T09:55:16;7.17;;;5.47;;
1601;SDS011;794;48.592;9.634;2023-09-30T09:57:45;13.13;;;6.00;;
1601;SDS011;794;48.592;9.634;2023-09-30T10:00:13;8.00;;;5.07;;
1601;SDS011;794;48.592;9.634;2023-09-30T10:02:43;8.23;;;4.90;;
1601;SDS011;794;48.592;9.634;2023-09-30T10:05:11;13.37;;;4.73;;
1601;SDS011;794;48.592;9.634;2023-09-30T10:07:51;8.27;;;4.43;;
1601;SDS011;794;48.592;9.634;2023-09-30T10:10:20;6.73;;;5.27;;
1601;SDS011;794;48.592;9.634;2023-09-30T10:12:49;6.10;;;4.60;;
1601;SDS011;794;48.592;9.634;2023-09-30T10:15:37;6.97;;;4.50;;
1601;SDS011;794;48.592;9.634;2023-09-30T10:18:08;12.03;;;4.83;;
1601;SDS011;794;48.592;9.634;2023-09-30T10:20:40;7.30;;;4.83;;
1601;SDS011;794;48.592;9.634;2023-09-30T10:23:24;10.80;;;5.03;;
1601;SDS011;794;48.592;9.634;2023-09-30T10:26:13;7.33;;;4.80;;
1601;SDS011;794;48.592;9.634;2023-09-30T10:28:50;6.83;;;4.50;;
1601;SDS011;794;48.592;9.634;2023-09-30T10:31:39;9.60;;;5.03;;
1601;SDS011;794;48.592;9.634;2023-09-30T10:34:28;11.13;;;5.90;;
1601;SDS011;794;48.592;9.634;2023-09-30T10:40:01;6.10;;;4.87;;
1601;SDS011;794;48.592;9.634;2023-09-30T10:42:45;8.10;;;5.63;;
1601;SDS011;794;48.592;9.634;2023-09-30T10:51:27;8.50;;;5.27;;
1601;SDS011;794;48.592;9.634;2023-09-30T10:53:54;9.80;;;7.67;;
1601;SDS011;794;48.592;9.634;2023-09-30T10:56:32;9.60;;;4.70;;
1601;SDS011;794;48.592;9.634;2023-09-30T10:59:03;12.47;;;5.90;;
1601;SDS011;794;48.592;9.634;2023-09-30T11:01:36;11.20;;;5.73;;
1601;SDS011;794;48.592;9.634;2023-09-30T11:04:06;10.53;;;6.30;;
1601;SDS011;794;48.592;9.634;2023-09-30T11:06:39;11.10;;;6.07;;
1601;SDS011;794;48.592;9.634;2023-09-30T11:09:19;11.03;;;6.30;;
1601;SDS011;794;48.592;9.634;2023-09-30T11:11:57;16.63;;;6.60;;
1601;SDS011;794;48.592;9.634;2023-09-30T11:14:33;12.80;;;7.20;;
1601;SDS011;794;48.592;9.634;2023-09-30T11:17:01;13.80;;;6.70;;
1601;SDS011;794;48.592;9.634;2023-09-30T11:19:34;13.13;;;7.27;;
1601;SDS011;794;48.592;9.634;2023-09-30T11:22:02;12.13;;;7.23;;
1601;SDS011;794;48.592;9.634;2023-09-30T11:24:34;14.70;;;7.23;;
1601;SDS011;794;48.592;9.634;2023-09-30T11:27:07;15.13;;;8.00;;
1601;SDS011;794;48.592;9.634;2023-09-30T11:29:37;16.83;;;8.83;;
1601;SDS011;794;48.592;9.634;2023-09-30T11:32:23;13.30;;;8.73;;
1601;SDS011;794;48.592;9.634;2023-09-30T11:34:52;13.00;;;7.77;;
1601;SDS011;794;48.592;9.634;2023-09-30T11:37:19;16.47;;;7.40;;
1601;SDS011;794;48.592;9.634;2023-09-30T11:39:46;13.20;;;7.10;;
1601;SDS011;794;48.592;9.634;2023-09-30T11:42:17;10.27;;;6.33;;
1601;SDS011;794;48.592;9.634;2023-09-30T11:44:45;10.60;;;6.63;;
1601;SDS011;794;48.592;9.634;2023-09-30T11:47:14;10.73;;;6.87;;
1601;SDS011;794;48.592;9.634;2023-09-30T11:49:41;11.90;;;6.20;;
1601;SDS011;794;48.592;9.634;2023-09-30T11:52:10;8.00;;;5.50;;
1601;SDS011;794;48.592;9.634;2023-09-30T11:54:39;9.07;;;5.73;;
1601;SDS011;794;48.592;9.634;2023-09-30T11:57:08;11.60;;;5.60;;
1601;SDS011;794;48.592;9.634;2023-09-30T11:59:38;23.53;;;8.17;;
1601;SDS011;794;48.592;9.634;2023-09-30T12:02:06;15.03;;;7.07;;
1601;SDS011;794;48.592;9.634;2023-09-30T12:04:34;14.10;;;7.93;;
1601;SDS011;794;48.592;9.634;2023-09-30T12:07:01;12.00;;;7.07;;
1601;SDS011;794;48.592;9.634;2023-09-30T12:09:28;10.33;;;6.93;;
1601;SDS011;794;48.592;9.634;2023-09-30T12:11:56;14.33;;;7.90;;
1601;SDS011;794;48.592;9.634;2023-09-30T12:14:24;11.07;;;7.67;;
1601;SDS011;794;48.592;9.634;2023-09-30T12:16:53;16.10;;;6.70;;
1601;SDS011;794;48.592;9.634;2023-09-30T12:19:19;11.93;;;6.47;;
1601;SDS011;794;48.592;9.634;2023-09-30T12:21:46;11.60;;;7.00;;
1601;SDS011;794;48.592;9.634;2023-09-30T12:24:14;13.53;;;7.90;;
1601;SDS011;794;48.592;9.634;2023-09-30T12:26:42;12.30;;;7.53;;
1601;SDS011;794;48.592;9.634;2023-09-30T12:29:13;14.40;;;7.37;;
1601;SDS011;794;48.592;9.634;2023-09-30T12:31:41;8.30;;;6.03;;
1601;SDS011;794;48.592;9.634;2023-09-30T12:34:10;11.70;;;6.90;;
1601;SDS011;794;48.592;9.634;2023-09-30T12:36:37;13.03;;;6.80;;
1601;SDS011;794;48.592;9.634;2023-09-30T12:39:04;11.53;;;7.30;;
1601;SDS011;794;48.592;9.634;2023-09-30T12:41:35;10.57;;;7.10;;
1601;SDS011;794;48.592;9.634;2023-09-30T12:44:02;12.23;;;7.47;;
1601;SDS011;794;48.592;9.634;2023-09-30T12:46:30;15.13;;;7.97;;
1601;SDS011;794;48.592;9.634;2023-09-30T12:48:59;17.37;;;6.80;;
1601;SDS011;794;48.592;9.634;2023-09-30T12:51:28;14.27;;;8.03;;
1601;SDS011;794;48.592;9.634;2023-09-30T12:53:55;14.30;;;7.93;;
1601;SDS011;794;48.592;9.634;2023-09-30T12:56:23;12.27;;;7.23;;
1601;SDS011;794;48.592;9.634;2023-09-30T12:58:50;12.40;;;8.00;;
1601;SDS011;794;48.592;9.634;2023-09-30T13:01:17;12.60;;;7.20;;
1601;SDS011;794;48.592;9.634;2023-09-30T13:03:44;12.10;;;7.23;;
1601;SDS011;794;48.592;9.634;2023-09-30T13:06:11;18.10;;;7.77;;
1601;SDS011;794;48.592;9.634;2023-09-30T13:08:39;16.70;;;6.80;;
1601;SDS011;794;48.592;9.634;2023-09-30T13:11:07;10.33;;;6.70;;
1601;SDS011;794;48.592;9.634;2023-09-30T13:13:34;12.63;;;7.20;;
1601;SDS011;794;48.592;9.634;2023-09-30T13:16:01;13.00;;;6.60;;
1601;SDS011;794;48.592;9.634;2023-09-30T13:18:30;15.53;;;8.10;;
1601;SDS011;794;48.592;9.634;2023-09-30T13:20:57;11.07;;;7.10;;
1601;SDS011;794;48.592;9.634;2023-09-30T13:23:24;12.33;;;7.07;;
1601;SDS011;794;48.592;9.634;2023-09-30T13:25:54;10.90;;;6.00;;
1601;SDS011;794;48.592;9.634;2023-09-30T13:28:21;13.77;;;6.10;;
1601;SDS011;794;48.592;9.634;2023-09-30T13:30:48;13.03;;;6.67;;
1601;SDS011;794;48.592;9.634;2023-09-30T13:33:15;12.00;;;6.30;;
1601;SDS011;794;48.592;9.634;2023-09-30T13:35:44;10.47;;;6.73;;
1601;SDS011;794;48.592;9.634;2023-09-30T13:38:12;12.20;;;6.73;;
1601;SDS011;794;48.592;9.634;2023-09-30T13:40:39;12.73;;;6.63;;
1601;SDS011;794;48.592;9.634;2023-09-30T13:43:07;12.80;;;7.70;;
1601;SDS011;794;48.592;9.634;2023-09-30T13:45:36;15.00;;;6.87;;
1601;SDS011;794;48.592;9.634;2023-09-30T13:48:06;11.37;;;7.10;;
1601;SDS011;794;48.592;9.634;2023-09-30T13:50:33;15.20;;;7.60;;
1601;SDS011;794;48.592;9.634;2023-09-30T13:53:04;14.80;;;7.47;;
1601;SDS011;794;48.592;9.634;2023-09-30T13:55:31;10.57;;;6.93;;
1601;SDS011;794;48.592;9.634;2023-09-30T13:57:58;12.50;;;6.83;;
1601;SDS011;794;48.592;9.634;2023-09-30T14:00:26;11.90;;;6.53;;
1601;SDS011;794;48.592;9.634;2023-09-30T14:02:55;15.47;;;7.87;;
1601;SDS011;794;48.592;9.634;2023-09-30T14:05:22;10.73;;;6.87;;
1601;SDS011;794;48.592;9.634;2023-09-30T14:07:49;12.70;;;6.67;;
1601;SDS011;794;48.592;9.634;2023-09-30T14:10:17;11.37;;;6.80;;
1601;SDS011;794;48.592;9.634;2023-09-30T14:12:46;12.93;;;6.53;;
1601;SDS011;794;48.592;9.634;2023-09-30T14:18:36;15.30;;;6.70;;
1601;SDS011;794;48.592;9.634;2023-09-30T14:21:07;17.40;;;7.87;;
1601;SDS011;794;48.592;9.634;2023-09-30T14:23:34;11.17;;;6.40;;
1601;SDS011;794;48.592;9.634;2023-09-30T14:26:01;10.60;;;6.50;;
1601;SDS011;794;48.592;9.634;2023-09-30T14:28:35;9.50;;;6.00;;
1601;SDS011;794;48.592;9.634;2023-09-30T14:34:09;13.20;;;7.33;;
1601;SDS011;794;48.592;9.634;2023-09-30T14:36:45;11.97;;;7.00;;
1601;SDS011;794;48.592;9.634;2023-09-30T14:39:15;11.70;;;6.73;;
1601;SDS011;794;48.592;9.634;2023-09-30T14:41:42;9.93;;;5.20;;
1601;SDS011;794;48.592;9.634;2023-09-30T14:44:10;12.40;;;6.17;;
1601;SDS011;794;48.592;9.634;2023-09-30T14:46:38;9.20;;;5.77;;
1601;SDS011;794;48.592;9.634;2023-09-30T14:49:08;11.80;;;6.13;;
1601;SDS011;794;48.592;9.634;2023-09-30T14:51:37;10.93;;;6.50;;
1601;SDS011;794;48.592;9.634;2023-09-30T14:54:04;10.53;;;6.10;;
1601;SDS011;794;48.592;9.634;2023-09-30T14:56:33;11.37;;;6.03;;
1601;SDS011;794;48.592;9.634;2023-09-30T14:59:00;6.43;;;5.23;;
1601;SDS011;794;48.592;9.634;2023-09-30T15:01:29;10.53;;;6.10;;
1601;SDS011;794;48.592;9.634;2023-09-30T15:04:06;11.03;;;5.87;;
1601;SDS011;794;48.592;9.634;2023-09-30T15:06:34;7.87;;;5.10;;
1601;SDS011;794;48.592;9.634;2023-09-30T15:09:01;11.23;;;6.27;;
1601;SDS011;794;48.592;9.634;2023-09-30T15:11:34;15.33;;;5.73;;
1601;SDS011;794;48.592;9.634;2023-09-30T15:14:01;12.27;;;6.70;;
1601;SDS011;794;48.592;9.634;2023-09-30T15:16:30;10.43;;;6.10;;
1601;SDS011;794;48.592;9.634;2023-09-30T15:19:06;8.97;;;5.53;;
1601;SDS011;794;48.592;9.634;2023-09-30T15:21:40;6.63;;;5.33;;
1601;SDS011;794;48.592;9.634;2023-09-30T15:24:09;10.10;;;5.37;;
1601;SDS011;794;48.592;9.634;2023-09-30T15:26:36;12.03;;;5.70;;
1601;SDS011;794;48.592;9.634;2023-09-30T15:29:05;12.37;;;6.10;;
1601;SDS011;794;48.592;9.634;2023-09-30T15:31:34;13.87;;;6.50;;
1601;SDS011;794;48.592;9.634;2023-09-30T15:34:01;8.80;;;6.00;;
1601;SDS011;794;48.592;9.634;2023-09-30T15:36:28;8.83;;;5.50;;
1601;SDS011;794;48.592;9.634;2023-09-30T15:38:56;9.90;;;5.70;;
1601;SDS011;794;48.592;9.634;2023-09-30T15:41:24;10.77;;;6.37;;
1601;SDS011;794;48.592;9.634;2023-09-30T15:43:51;8.53;;;5.47;;
1601;SDS011;794;48.592;9.634;2023-09-30T15:46:18;9.53;;;5.40;;
1601;SDS011;794;48.592;9.634;2023-09-30T15:48:45;8.50;;;6.00;;
1601;SDS011;794;48.592;9.634;2023-09-30T15:51:12;10.37;;;5.90;;
1601;SDS011;794;48.592;9.634;2023-09-30T15:53:40;9.53;;;6.00;;
1601;SDS011;794;48.592;9.634;2023-09-30T15:56:08;8.57;;;5.33;;
1601;SDS011;794;48.592;9.634;2023-09-30T15:58:35;10.40;;;5.60;;
1601;SDS011;794;48.592;9.634;2023-09-30T16:01:03;9.40;;;6.20;;
1601;SDS011;794;48.592;9.634;2023-09-30T16:03:30;13.83;;;6.17;;
1601;SDS011;794;48.592;9.634;2023-09-30T16:05:57;8.00;;;4.80;;
1601;SDS011;794;48.592;9.634;2023-09-30T16:08:24;9.87;;;5.77;;
1601;SDS011;794;48.592;9.634;2023-09-30T16:10:51;10.60;;;5.30;;
1601;SDS011;794;48.592;9.634;2023-09-30T16:13:22;9.53;;;6.00;;
1601;SDS011;794;48.592;9.634;2023-09-30T16:15:49;9.80;;;5.47;;
1601;SDS011;794;48.592;9.634;2023-09-30T16:18:17;8.90;;;6.57;;
1601;SDS011;794;48.592;9.634;2023-09-30T16:20:47;11.00;;;5.67;;
1601;SDS011;794;48.592;9.634;2023-09-30T16:23:15;8.53;;;5.40;;
1601;SDS011;794;48.592;9.634;2023-09-30T16:25:42;7.10;;;5.33;;
1601;SDS011;794;48.592;9.634;2023-09-30T16:28:09;9.40;;;5.87;;
1601;SDS011;794;48.592;9.634;2023-09-30T16:30:38;9.53;;;4.67;;
1601;SDS011;794;48.592;9.634;2023-09-30T16:33:07;9.80;;;5.57;;
1601;SDS011;794;48.592;9.634;2023-09-30T16:35:37;8.03;;;5.30;;
1601;SDS011;794;48.592;9.634;2023-09-30T16:38:04;11.43;;;5.43;;
1601;SDS011;794;48.592;9.634;2023-09-30T16:40:32;10.27;;;5.67;;
1601;SDS011;794;48.592;9.634;2023-09-30T16:42:59;10.10;;;5.10;;
1601;SDS011;794;48.592;9.634;2023-09-30T16:45:26;8.50;;;4.77;;